createdAt,value
2019-03-12T00:00:28.977Z,3.97
2019-03-12T00:02:57.445Z,2.60
2019-03-12T00:05:25.908Z,3.00
2019-03-12T00:07:54.381Z,4.70
2019-03-12T00:10:22.849Z,2.80
2019-03-12T00:12:51.307Z,3.20
2019-03-12T00:15:19.797Z,3.30
2019-03-12T00:17:48.255Z,2.83
2019-03-12T00:20:16.725Z,2.90
2019-03-12T00:22:45.182Z,3.35
2019-03-12T00:25:13.723Z,3.22
2019-03-12T00:27:42.239Z,2.90
2019-03-12T00:30:11.161Z,2.95
2019-03-12T00:32:39.656Z,3.72
2019-03-12T00:35:08.586Z,2.60
2019-03-12T00:37:37.121Z,3.77
2019-03-12T00:40:07.472Z,3.10
2019-03-12T00:42:35.922Z,3.10
2019-03-12T00:45:09.515Z,4.40
2019-03-12T00:47:37.964Z,3.70
2019-03-12T00:50:08.556Z,3.75
2019-03-12T00:52:37.113Z,3.67
2019-03-12T00:55:07.320Z,3.05
2019-03-12T00:57:36.018Z,3.77
2019-03-12T01:00:07.595Z,2.90
2019-03-12T01:02:36.192Z,3.17
2019-03-12T01:05:06.620Z,3.00
2019-03-12T01:07:35.082Z,3.25
2019-03-12T01:10:03.820Z,2.90
2019-03-12T01:12:32.298Z,4.17
2019-03-12T01:15:00.766Z,3.52
2019-03-12T01:17:31.422Z,3.27
2019-03-12T01:19:59.544Z,3.67
2019-03-12T01:22:28.094Z,4.00
2019-03-12T01:24:56.566Z,3.97
2019-03-12T01:27:25.236Z,4.03
2019-03-12T01:29:53.732Z,3.53
2019-03-12T01:32:22.278Z,4.17
2019-03-12T01:34:50.784Z,3.33
2019-03-12T01:37:19.678Z,3.58
2019-03-12T01:39:48.183Z,4.10
2019-03-12T01:42:16.666Z,3.93
2019-03-12T01:44:45.136Z,3.50
2019-03-12T01:47:13.604Z,4.37
2019-03-12T01:49:42.222Z,3.60
2019-03-12T01:52:10.838Z,3.50
2019-03-12T01:54:39.400Z,4.12
2019-03-12T01:57:08.013Z,3.87
2019-03-12T01:59:36.536Z,4.60
2019-03-12T02:02:05.102Z,3.80
2019-03-12T02:04:33.624Z,3.77
2019-03-12T02:07:02.138Z,4.80
2019-03-12T02:09:30.925Z,3.67
2019-03-12T02:11:59.376Z,3.40
2019-03-12T02:14:28.912Z,3.30
2019-03-12T02:16:58.432Z,4.20
2019-03-12T02:19:26.887Z,3.43
2019-03-12T02:21:55.423Z,3.57
2019-03-12T02:24:24.042Z,4.13
2019-03-12T02:26:52.523Z,3.87
2019-03-12T02:29:21.038Z,3.47
2019-03-12T02:31:56.207Z,4.90
2019-03-12T02:34:24.797Z,4.40
2019-03-12T02:36:58.015Z,3.50
2019-03-12T02:39:26.544Z,3.80
2019-03-12T02:41:55.010Z,3.30
2019-03-12T02:44:23.527Z,3.67
2019-03-12T02:46:52.148Z,3.33
2019-03-12T02:49:20.596Z,3.50
2019-03-12T02:51:49.176Z,3.37
2019-03-12T02:54:17.637Z,3.60
2019-03-12T02:56:46.110Z,3.87
2019-03-12T02:59:14.576Z,3.07
2019-03-12T03:01:43.113Z,3.30
2019-03-12T03:04:11.573Z,3.63
2019-03-12T03:06:41.742Z,3.67
2019-03-12T03:09:10.238Z,4.43
2019-03-12T03:11:38.715Z,3.07
2019-03-12T03:14:10.386Z,3.90
2019-03-12T03:16:40.408Z,3.92
2019-03-12T03:19:08.960Z,3.55
2019-03-12T03:21:37.544Z,3.90
2019-03-12T03:24:06.067Z,3.57
2019-03-12T03:26:34.552Z,3.27
2019-03-12T03:29:03.375Z,3.57
2019-03-12T03:31:34.847Z,3.37
2019-03-12T03:34:03.549Z,3.60
2019-03-12T03:36:32.085Z,3.42
2019-03-12T03:39:00.567Z,3.12
2019-03-12T03:41:29.063Z,3.77
2019-03-12T03:43:59.535Z,3.60
2019-03-12T03:46:36.791Z,3.20
2019-03-12T03:49:05.567Z,4.80
2019-03-12T03:51:38.506Z,3.70
2019-03-12T03:54:07.119Z,3.55
2019-03-12T03:56:35.647Z,3.20
2019-03-12T03:59:04.187Z,3.60
2019-03-12T04:01:32.969Z,3.77
2019-03-12T04:04:01.432Z,3.40
2019-03-12T04:06:33.794Z,3.93
2019-03-12T04:09:01.902Z,3.65
2019-03-12T04:11:30.526Z,3.60
2019-03-12T04:13:58.999Z,4.70
2019-03-12T04:16:27.474Z,4.47
2019-03-12T04:18:55.970Z,4.05
2019-03-12T04:21:24.637Z,3.33
2019-03-12T04:23:53.101Z,4.05
2019-03-12T04:26:21.660Z,3.33
2019-03-12T04:28:50.319Z,3.80
2019-03-12T04:31:19.020Z,3.47
2019-03-12T04:33:59.575Z,4.67
2019-03-12T04:36:28.251Z,3.40
2019-03-12T04:38:56.966Z,3.75
2019-03-12T04:41:25.545Z,3.77
2019-03-12T04:43:54.075Z,4.12
2019-03-12T04:46:22.763Z,3.47
2019-03-12T04:48:51.380Z,3.98
2019-03-12T04:51:19.870Z,4.10
2019-03-12T04:53:48.337Z,3.83
2019-03-12T04:56:16.816Z,4.85
2019-03-12T04:58:45.271Z,4.10
2019-03-12T05:01:13.755Z,3.98
2019-03-12T05:03:42.211Z,4.42
2019-03-12T05:06:10.681Z,4.67
2019-03-12T05:08:39.154Z,4.67
2019-03-12T05:11:07.607Z,4.22
2019-03-12T05:13:36.077Z,5.10
2019-03-12T05:16:04.537Z,4.90
2019-03-12T05:18:33.048Z,5.08
2019-03-12T05:21:01.556Z,5.33
2019-03-12T05:23:31.405Z,5.10
2019-03-12T05:25:59.916Z,5.72
2019-03-12T05:28:28.400Z,4.30
2019-03-12T05:30:56.848Z,4.65
2019-03-12T05:33:25.320Z,4.97
2019-03-12T05:35:53.786Z,3.67
2019-03-12T05:38:22.274Z,4.58
2019-03-12T05:40:50.734Z,3.77
2019-03-12T05:43:19.208Z,4.20
2019-03-12T05:45:47.686Z,3.40
2019-03-12T05:48:16.227Z,4.05
2019-03-12T05:50:44.690Z,3.05
2019-03-12T05:53:14.710Z,4.87
2019-03-12T05:55:43.168Z,3.70
2019-03-12T05:58:11.648Z,4.33
2019-03-12T06:00:40.100Z,3.85
2019-03-12T06:03:08.578Z,4.50
2019-03-12T06:05:37.034Z,3.83
2019-03-12T06:08:05.502Z,4.75
2019-03-12T06:10:33.992Z,3.90
2019-03-12T06:13:02.480Z,4.33
2019-03-12T06:15:31.022Z,3.80
2019-03-12T06:17:59.870Z,4.70
2019-03-12T06:20:28.384Z,4.55
2019-03-12T06:22:56.843Z,4.65
2019-03-12T06:25:25.390Z,4.47
2019-03-12T06:27:53.920Z,5.67
2019-03-12T06:30:25.665Z,5.67
2019-03-12T06:32:57.102Z,5.20
2019-03-12T06:35:29.938Z,5.62
2019-03-12T06:38:02.782Z,5.35
2019-03-12T06:43:18.920Z,5.30
2019-03-12T06:45:51.856Z,5.85
2019-03-12T06:48:24.935Z,6.25
2019-03-12T06:51:09.820Z,6.25
2019-03-12T06:53:57.473Z,5.80
2019-03-12T06:56:27.579Z,7.83
2019-03-12T06:59:00.643Z,6.90
2019-03-12T07:01:36.314Z,6.67
2019-03-12T07:04:06.511Z,7.08
2019-03-12T07:06:52.713Z,7.53
2019-03-12T07:09:31.259Z,6.90
2019-03-12T07:12:07.091Z,8.55
2019-03-12T07:14:42.975Z,8.40
2019-03-12T07:17:13.087Z,7.73
2019-03-12T07:19:54.903Z,7.20
2019-03-12T07:22:27.710Z,7.73
2019-03-12T07:24:57.797Z,7.73
2019-03-12T07:27:27.917Z,9.57
2019-03-12T07:30:06.795Z,9.48
2019-03-12T07:32:48.769Z,8.57
2019-03-12T07:35:22.730Z,7.93
2019-03-12T07:38:01.795Z,7.83
2019-03-12T07:40:46.370Z,8.40
2019-03-12T07:43:16.484Z,7.43
2019-03-12T07:45:46.567Z,7.10
2019-03-12T07:48:16.680Z,7.23
2019-03-12T07:50:49.743Z,7.40
2019-03-12T07:53:34.376Z,6.20
2019-03-12T07:56:07.169Z,6.70
2019-03-12T07:58:40.183Z,6.93
2019-03-12T08:01:24.833Z,6.60
2019-03-12T08:03:58.999Z,5.90
2019-03-12T08:06:33.805Z,6.33
2019-03-12T08:09:06.397Z,5.60
2019-03-12T08:11:36.482Z,5.63
2019-03-12T08:14:09.709Z,4.93
2019-03-12T08:16:39.799Z,4.80
2019-03-12T08:19:24.674Z,4.97
2019-03-12T08:21:54.801Z,4.73
2019-03-12T08:24:34.067Z,5.47
2019-03-12T08:27:21.765Z,3.90
2019-03-12T08:29:51.900Z,3.97
2019-03-12T08:32:28.033Z,3.83
2019-03-12T08:35:03.764Z,4.43
2019-03-12T08:37:39.844Z,4.03
2019-03-12T08:40:13.606Z,3.67
2019-03-12T08:42:54.557Z,4.87
2019-03-12T08:45:18.507Z,4.80
2019-03-12T08:47:57.122Z,4.10
2019-03-12T08:50:36.260Z,4.27
2019-03-12T08:53:09.364Z,3.93
2019-03-12T08:55:39.481Z,3.80
2019-03-12T08:58:09.567Z,4.10
2019-03-12T09:00:55.396Z,4.60
2019-03-12T09:03:34.191Z,3.50
2019-03-12T09:06:13.377Z,4.60
2019-03-12T09:08:55.096Z,4.47
2019-03-12T09:11:40.256Z,4.80
2019-03-12T09:14:19.140Z,3.53
2019-03-12T09:16:55.078Z,4.70
2019-03-12T09:19:25.185Z,4.40
2019-03-12T09:22:00.726Z,4.00
2019-03-12T09:24:45.598Z,3.83
2019-03-12T09:27:21.260Z,3.80
2019-03-12T09:29:51.346Z,3.50
2019-03-12T09:32:39.606Z,4.40
2019-03-12T09:35:10.542Z,3.90
2019-03-12T09:37:40.633Z,4.17
2019-03-12T09:40:15.924Z,3.10
2019-03-12T09:42:46.010Z,4.67
2019-03-12T09:45:16.108Z,3.70
2019-03-12T09:47:51.842Z,4.10
2019-03-12T09:50:27.810Z,4.17
2019-03-12T09:53:00.314Z,4.00
2019-03-12T09:55:30.416Z,3.90
2019-03-12T09:58:00.506Z,3.77
2019-03-12T10:00:42.912Z,4.37
2019-03-12T10:03:13.007Z,3.90
2019-03-12T10:05:45.844Z,4.87
2019-03-12T10:08:21.595Z,3.63
2019-03-12T10:11:03.249Z,4.07
2019-03-12T10:13:36.298Z,3.50
2019-03-12T10:16:15.511Z,4.43
2019-03-12T10:19:03.209Z,4.10
2019-03-12T10:21:41.898Z,3.87
2019-03-12T10:24:28.968Z,4.17
2019-03-12T10:26:59.225Z,4.10
2019-03-12T10:29:29.317Z,3.87
2019-03-12T10:32:02.430Z,3.90
2019-03-12T10:34:35.178Z,5.77
2019-03-12T10:37:11.875Z,3.30
2019-03-12T10:40:10.466Z,4.60
2019-03-12T10:42:43.635Z,3.97
2019-03-12T10:45:14.070Z,4.40
2019-03-12T10:47:50.351Z,3.80
2019-03-12T10:50:18.863Z,4.20
2019-03-12T10:52:47.333Z,4.00
2019-03-12T10:55:15.786Z,3.80
2019-03-12T10:57:44.287Z,3.47
2019-03-12T11:00:17.516Z,4.17
2019-03-12T11:02:46.094Z,4.40
2019-03-12T11:05:14.804Z,3.90
2019-03-12T11:07:43.313Z,4.03
2019-03-12T11:10:20.860Z,3.30
2019-03-12T11:12:49.468Z,3.23
2019-03-12T11:15:18.539Z,4.07
2019-03-12T11:17:50.059Z,3.17
2019-03-12T11:20:27.189Z,6.13
2019-03-12T11:22:55.715Z,4.60
2019-03-12T11:25:27.837Z,3.80
2019-03-12T11:27:54.383Z,3.53
2019-03-12T11:30:22.862Z,4.03
2019-03-12T11:32:51.314Z,3.87
2019-03-12T11:35:19.788Z,4.20
2019-03-12T11:37:48.288Z,3.63
2019-03-12T11:40:18.998Z,4.40
2019-03-12T11:42:47.660Z,3.43
2019-03-12T11:45:19.051Z,4.23
2019-03-12T11:47:46.532Z,4.57
2019-03-12T11:50:17.927Z,3.97
2019-03-12T11:52:54.221Z,3.27
2019-03-12T11:55:17.170Z,3.80
2019-03-12T11:57:45.928Z,3.40
2019-03-12T12:00:23.765Z,2.90
2019-03-12T12:03:00.085Z,5.23
2019-03-12T12:05:22.634Z,3.90
2019-03-12T12:07:51.156Z,3.20
2019-03-12T12:10:19.792Z,3.20
2019-03-12T12:12:48.285Z,3.63
2019-03-12T12:15:17.292Z,3.50
2019-03-12T12:17:45.745Z,3.13
2019-03-12T12:20:28.455Z,3.43
2019-03-12T12:22:45.517Z,3.70
2019-03-12T12:25:18.182Z,3.53
2019-03-12T12:27:46.657Z,3.67
2019-03-12T12:30:17.923Z,3.10
2019-03-12T12:32:46.532Z,3.13
2019-03-12T12:35:15.117Z,3.03
2019-03-12T12:37:43.763Z,3.33
2019-03-12T12:40:19.561Z,3.93
2019-03-12T12:42:48.102Z,3.30
2019-03-12T12:45:19.528Z,3.40
2019-03-12T12:47:48.135Z,2.70
2019-03-12T12:50:16.823Z,3.10
2019-03-12T12:52:45.406Z,3.00
2019-03-12T12:55:14.993Z,3.33
2019-03-12T12:57:43.544Z,3.30
2019-03-12T13:00:15.330Z,3.00
2019-03-12T13:02:43.862Z,3.23
2019-03-12T13:05:12.568Z,2.93
2019-03-12T13:07:41.024Z,3.00
2019-03-12T13:10:18.041Z,3.57
2019-03-12T13:12:46.615Z,4.43
2019-03-12T13:15:15.297Z,2.63
2019-03-12T13:17:43.837Z,3.30
2019-03-12T13:20:12.533Z,3.17
2019-03-12T13:22:40.987Z,3.80
2019-03-12T13:25:12.534Z,3.70
2019-03-12T13:27:42.467Z,2.60
2019-03-12T13:30:23.913Z,2.73
2019-03-12T13:32:52.548Z,2.93
2019-03-12T13:35:21.330Z,3.00
2019-03-12T13:37:49.933Z,2.93
2019-03-12T13:40:20.032Z,4.00
2019-03-12T13:42:48.534Z,2.87
2019-03-12T13:45:24.605Z,3.07
2019-03-12T13:47:53.252Z,2.33
2019-03-12T13:50:21.885Z,3.00
2019-03-12T13:52:50.553Z,3.20
2019-03-12T13:55:19.199Z,3.47
2019-03-12T13:57:47.751Z,3.23
2019-03-12T14:00:23.986Z,3.60
2019-03-12T14:02:52.795Z,3.57
2019-03-12T14:05:21.407Z,3.43
2019-03-12T14:07:49.973Z,3.50
2019-03-12T14:10:23.419Z,4.50
2019-03-12T14:12:54.499Z,2.57
2019-03-12T14:15:28.556Z,3.20
2019-03-12T14:17:57.247Z,2.83
2019-03-12T14:20:47.637Z,3.07
2019-03-12T14:23:21.519Z,3.00
2019-03-12T14:25:50.747Z,2.67
2019-03-12T14:28:19.365Z,4.10
2019-03-12T14:30:47.988Z,3.07
2019-03-12T14:33:16.605Z,3.40
2019-03-12T14:35:51.274Z,2.70
2019-03-12T14:38:15.735Z,3.40
2019-03-12T14:40:44.268Z,2.63
2019-03-12T14:43:12.824Z,2.90
2019-03-12T14:45:44.446Z,2.67
2019-03-12T14:48:37.582Z,2.87
2019-03-12T14:51:09.111Z,2.97
2019-03-12T14:53:38.830Z,2.53
2019-03-12T14:56:09.797Z,2.27
2019-03-12T14:58:38.310Z,2.47
2019-03-12T15:01:06.852Z,2.67
2019-03-12T15:03:35.628Z,2.40
2019-03-12T15:06:04.162Z,2.60
2019-03-12T15:08:32.652Z,2.87
2019-03-12T15:11:01.113Z,3.10
2019-03-12T15:13:29.617Z,3.00
2019-03-12T15:15:58.158Z,3.20
2019-03-12T15:18:26.626Z,2.80
2019-03-12T15:20:55.096Z,2.40
2019-03-12T15:23:23.562Z,3.00
2019-03-12T15:25:52.055Z,3.33
2019-03-12T15:28:20.509Z,4.17
2019-03-12T15:30:48.988Z,3.10
2019-03-12T15:33:17.489Z,2.60
2019-03-12T15:35:46.030Z,2.83
2019-03-12T15:38:14.494Z,2.90
2019-03-12T15:40:43.111Z,2.87
2019-03-12T15:43:11.587Z,2.85
2019-03-12T15:45:40.041Z,2.93
2019-03-12T15:48:08.493Z,2.60
2019-03-12T15:50:36.949Z,2.30
2019-03-12T15:53:05.410Z,2.97
2019-03-12T15:55:33.867Z,2.87
2019-03-12T15:58:02.361Z,2.33
2019-03-12T16:00:30.899Z,2.40
2019-03-12T16:02:59.367Z,3.00
2019-03-12T16:05:27.893Z,2.67
2019-03-12T16:07:56.369Z,2.57
2019-03-12T16:10:25.001Z,2.53
2019-03-12T16:12:53.471Z,2.80
2019-03-12T16:15:22.024Z,2.90
2019-03-12T16:17:50.571Z,2.87
2019-03-12T16:20:20.679Z,3.00
2019-03-12T16:22:49.165Z,2.77
2019-03-12T16:25:17.858Z,3.17
2019-03-12T16:27:46.409Z,2.83
2019-03-12T16:30:20.117Z,3.07
2019-03-12T16:32:48.568Z,4.00
2019-03-12T16:35:17.107Z,2.90
2019-03-12T16:37:45.786Z,2.53
2019-03-12T16:40:15.914Z,2.53
2019-03-12T16:42:44.597Z,2.90
2019-03-12T16:45:20.250Z,3.20
2019-03-12T16:47:48.841Z,2.50
2019-03-12T16:50:18.039Z,2.90
2019-03-12T16:52:46.519Z,2.77
2019-03-12T16:55:16.473Z,2.90
2019-03-12T16:57:44.945Z,2.90
2019-03-12T17:00:16.227Z,3.03
2019-03-12T17:02:44.844Z,2.40
2019-03-12T17:13:14.032Z,2.70
2019-03-12T17:15:42.632Z,3.07
2019-03-12T17:18:11.115Z,2.50
2019-03-12T17:20:39.610Z,2.33
2019-03-12T17:23:08.072Z,2.70
2019-03-12T17:25:36.558Z,2.40
2019-03-12T17:28:05.016Z,3.33
2019-03-12T17:30:33.617Z,2.80
2019-03-12T17:33:02.162Z,3.00
2019-03-12T17:35:36.495Z,2.90
2019-03-12T17:38:05.024Z,3.03
2019-03-12T17:40:33.645Z,2.87
2019-03-12T17:43:02.188Z,2.90
2019-03-12T17:45:30.709Z,3.10
2019-03-12T17:47:59.179Z,6.10
2019-03-12T17:50:27.734Z,2.47
2019-03-12T17:52:56.275Z,2.70
2019-03-12T17:55:24.743Z,3.17
2019-03-12T17:57:53.344Z,3.03
2019-03-12T18:00:27.944Z,2.70
2019-03-12T18:02:54.763Z,2.70
2019-03-12T18:05:23.358Z,3.20
2019-03-12T18:07:51.928Z,3.20
2019-03-12T18:10:27.048Z,3.30
2019-03-12T18:12:55.532Z,2.50
2019-03-12T18:15:24.130Z,2.30
2019-03-12T18:17:57.656Z,3.03
2019-03-12T18:20:26.270Z,3.00
2019-03-12T18:22:54.826Z,2.50
2019-03-12T18:25:26.468Z,3.80
2019-03-12T18:27:55.008Z,2.10
2019-03-12T18:30:23.626Z,2.70
2019-03-12T18:33:10.155Z,3.23
2019-03-12T18:35:38.742Z,2.33
2019-03-12T18:38:13.242Z,2.73
2019-03-12T18:40:41.832Z,2.20
2019-03-12T18:43:10.416Z,2.20
2019-03-12T18:45:39.823Z,2.43
2019-03-12T18:48:08.313Z,1.90
2019-03-12T18:50:36.889Z,3.37
2019-03-12T18:53:05.546Z,2.47
2019-03-12T18:55:38.426Z,3.00
2019-03-12T18:58:07.703Z,2.73
2019-03-12T19:00:37.622Z,2.37
2019-03-12T19:03:06.140Z,2.70
2019-03-12T19:05:34.639Z,2.40
2019-03-12T19:08:03.108Z,2.37
2019-03-12T19:10:31.762Z,2.70
2019-03-12T19:13:00.304Z,2.90
2019-03-12T19:15:28.872Z,2.60
2019-03-12T19:17:57.496Z,2.43
2019-03-12T19:20:25.948Z,2.93
2019-03-12T19:22:54.515Z,2.30
2019-03-12T19:25:37.971Z,2.77
2019-03-12T19:28:05.499Z,3.80
2019-03-12T19:30:34.271Z,2.00
2019-03-12T19:33:04.462Z,1.97
2019-03-12T19:35:33.525Z,2.67
2019-03-12T19:38:02.627Z,2.20
2019-03-12T19:40:34.193Z,2.10
2019-03-12T19:43:02.683Z,2.07
2019-03-12T19:45:31.253Z,3.73
2019-03-12T19:47:59.816Z,1.93
2019-03-12T19:50:28.540Z,2.10
2019-03-12T19:52:57.070Z,2.57
2019-03-12T19:55:28.695Z,2.30
2019-03-12T19:57:57.225Z,2.40
2019-03-12T20:00:27.201Z,2.20
2019-03-12T20:02:55.724Z,2.07
2019-03-12T20:05:24.196Z,1.90
2019-03-12T20:07:52.881Z,2.00
2019-03-12T20:10:33.207Z,2.30
2019-03-12T20:13:37.587Z,2.60
2019-03-12T20:16:34.358Z,2.20
2019-03-12T20:19:27.068Z,2.20
2019-03-12T20:22:21.028Z,2.70
2019-03-12T20:25:10.303Z,2.20
2019-03-12T20:27:45.306Z,2.00
2019-03-12T20:30:25.588Z,2.37
2019-03-12T20:33:13.428Z,2.50
2019-03-12T20:35:53.841Z,2.20
2019-03-12T20:38:41.511Z,2.40
2019-03-12T20:41:42.887Z,1.90
2019-03-12T20:44:46.965Z,1.93
2019-03-12T20:47:40.743Z,2.20
2019-03-12T20:50:31.483Z,2.50
2019-03-12T20:53:19.321Z,1.90
2019-03-12T20:56:22.445Z,1.90
2019-03-12T20:59:26.659Z,2.10
2019-03-12T21:02:11.182Z,2.20
2019-03-12T21:04:45.307Z,2.10
2019-03-12T21:07:36.035Z,1.83
2019-03-12T21:10:40.709Z,2.33
2019-03-12T21:13:14.829Z,2.30
2019-03-12T21:16:16.424Z,2.30
2019-03-12T21:18:50.471Z,2.03
2019-03-12T21:21:24.858Z,2.10
2019-03-12T21:24:04.479Z,2.20
2019-03-12T21:27:04.626Z,2.00
2019-03-12T21:29:44.826Z,2.03
2019-03-12T21:32:14.999Z,2.80
2019-03-12T21:34:43.548Z,1.87
2019-03-12T21:37:12.454Z,2.17
2019-03-12T21:39:54.044Z,2.60
2019-03-12T21:42:11.491Z,2.67
2019-03-12T21:44:40.193Z,1.83
2019-03-12T21:53:55.926Z,1.90
2019-03-12T21:56:33.509Z,2.07
2019-03-12T21:59:27.483Z,2.67
2019-03-12T22:01:56.032Z,2.20
2019-03-12T22:04:24.535Z,1.87
2019-03-12T22:06:53.071Z,2.03
2019-03-12T22:09:22.453Z,2.60
2019-03-12T22:11:51.120Z,2.47
2019-03-12T22:14:19.610Z,2.50
2019-03-12T22:16:49.850Z,2.03
2019-03-12T22:19:18.321Z,2.10
2019-03-12T22:21:51.198Z,2.00
2019-03-12T22:24:20.835Z,2.10
2019-03-12T22:26:49.364Z,2.37
2019-03-12T22:29:17.822Z,2.80
2019-03-12T22:31:46.308Z,2.27
2019-03-12T22:34:14.886Z,1.90
2019-03-12T22:36:43.451Z,2.00
2019-03-12T22:39:12.060Z,2.77
2019-03-12T22:41:40.534Z,2.00
2019-03-12T22:44:09.019Z,2.10
2019-03-12T22:46:49.604Z,1.80
2019-03-12T22:49:18.178Z,2.13
2019-03-12T22:52:09.088Z,2.30
2019-03-12T22:54:52.763Z,2.60
2019-03-12T23:00:43.864Z,2.33
2019-03-12T23:03:25.730Z,1.90
2019-03-12T23:05:54.326Z,2.20
2019-03-12T23:08:22.793Z,2.20
2019-03-12T23:10:51.380Z,2.43
2019-03-12T23:13:19.835Z,2.50
2019-03-12T23:15:48.370Z,2.10
2019-03-12T23:18:16.826Z,2.33
2019-03-12T23:20:45.354Z,2.20
2019-03-12T23:23:13.812Z,2.20
2019-03-12T23:25:42.275Z,2.57
2019-03-12T23:28:10.824Z,2.63
2019-03-12T23:30:39.411Z,2.20
2019-03-12T23:33:07.867Z,2.23
2019-03-12T23:35:36.346Z,2.80
2019-03-12T23:38:04.882Z,1.50
2019-03-12T23:40:33.367Z,1.40
2019-03-12T23:43:01.843Z,1.30
2019-03-12T23:45:30.378Z,1.33
2019-03-12T23:47:58.976Z,1.50
2019-03-12T23:50:28.012Z,1.87
2019-03-12T23:52:56.563Z,1.70
2019-03-12T23:55:25.023Z,1.87
2019-03-12T23:57:53.566Z,1.70
